UHSS

Yuzhno-Sakhalinsk Airport

Yuzhno-Sakhalinsk, Russian Federation
TAF UHSS 210200Z 2103/2209 24003MPS 5000 -SHRA BKN011CB 0VC100 FM210600 33006MPS 9999 BKN025CB
Issued Valid From Valid To
Apr-21 @ 02:00 UTC
(2 hours ago)
Apr-21 @ 03:00 UTC
(52 minutes ago)
Apr-22 @ 09:00 UTC
(-1 days ago)
Apr-21 @ 03:00 to Apr-21 @ 06:00
TAF UHSS 210200Z 2103/2209 24003MPS 5000 -SHRA BKN011CB 0VC100
Wind Visibility Clouds Conditions
240° at 6 knots 5,005 meters
  • Broken at 1,100' AGL
  • Light Rain
From Apr-21 @ 06:00 to Apr-22 @ 09:00
FM210600 33006MPS 9999 BKN025CB
Wind Visibility Clouds
330° at 12 knots 10,000+ meters
  • Broken at 2,500' AGL
TAF UHSS 210200Z 2103/2209 24003MPS 5000 -SHRA BKN011CB 0VC100 FM210600 33006MPS 9999 BKN025CB
Issued Apr-21 @ 02:00 UTC
(2 hours ago)
Valid From Apr-21 @ 03:00 UTC
(52 minutes ago)
Valid To Apr-22 @ 09:00 UTC
(-1 days ago)
Apr-21 @ 03:00 - Apr-21 @ 06:00
Wind Visibility
240° at 6 knots 5,005 meters
Clouds
  • Broken at 1,100' AGL
Conditions
  • Light Rain
From Apr-21 @ 06:00 - Apr-22 @ 09:00
Wind Visibility
330° at 12 knots 10,000+ meters
Clouds
  • Broken at 2,500' AGL